createdAt,value
2018-12-25T00:00:44.328Z,9.57
2018-12-25T00:03:24.665Z,9.80
2018-12-25T00:06:03.467Z,10.60
2018-12-25T00:08:51.310Z,9.40
2018-12-25T00:11:39.180Z,11.00
2018-12-25T00:14:27.080Z,8.80
2018-12-25T00:17:14.949Z,9.60
2018-12-25T00:20:02.780Z,10.17
2018-12-25T00:22:50.647Z,9.27
2018-12-25T00:25:38.479Z,12.30
2018-12-25T00:28:26.345Z,8.63
2018-12-25T00:31:14.186Z,9.37
2018-12-25T00:34:02.057Z,8.90
2018-12-25T00:39:56.791Z,9.17
2018-12-25T00:42:44.630Z,11.03
2018-12-25T00:48:27.662Z,9.03
2018-12-25T00:51:15.595Z,12.10
2018-12-25T00:54:05.117Z,11.07
2018-12-25T00:56:45.463Z,9.27
2018-12-25T00:59:25.995Z,10.63
2018-12-25T01:02:07.199Z,12.20
2018-12-25T01:04:47.842Z,11.40
2018-12-25T01:07:28.564Z,9.60
2018-12-25T01:10:09.770Z,10.00
2018-12-25T01:12:50.919Z,11.00
2018-12-25T01:15:31.750Z,13.37
2018-12-25T01:18:12.022Z,10.87
2018-12-25T01:20:53.276Z,11.17
2018-12-25T01:23:34.281Z,11.07
2018-12-25T01:26:15.321Z,9.03
2018-12-25T01:28:55.961Z,10.33
2018-12-25T01:31:36.393Z,10.87
2018-12-25T01:34:16.937Z,11.97
2018-12-25T01:36:57.333Z,11.40
2018-12-25T01:39:37.978Z,11.77
2018-12-25T01:42:18.836Z,10.60
2018-12-25T01:44:59.385Z,9.90
2018-12-25T01:47:40.337Z,9.70
2018-12-25T01:50:21.203Z,9.97
2018-12-25T01:53:02.106Z,9.30
2018-12-25T01:55:40.886Z,11.67
2018-12-25T01:58:28.751Z,8.33
2018-12-25T02:01:16.586Z,9.27
2018-12-25T02:04:04.455Z,10.23
2018-12-25T02:06:52.288Z,8.57
2018-12-25T02:09:40.181Z,10.23
2018-12-25T02:12:28.085Z,9.87
2018-12-25T02:15:15.921Z,9.13
2018-12-25T02:18:03.784Z,9.80
2018-12-25T02:20:51.623Z,11.07
2018-12-25T02:23:39.493Z,8.77
2018-12-25T02:26:27.337Z,10.67
2018-12-25T02:29:15.203Z,10.80
2018-12-25T02:32:03.043Z,11.80
2018-12-25T02:34:50.912Z,11.23
2018-12-25T02:37:38.755Z,10.33
2018-12-25T02:40:27.537Z,10.30
2018-12-25T02:42:56.028Z,11.20
2018-12-25T02:45:24.528Z,11.20
2018-12-25T02:48:12.378Z,13.00
2018-12-25T02:51:00.257Z,10.87
2018-12-25T02:53:48.102Z,10.83
2018-12-25T02:56:35.967Z,11.73
2018-12-25T02:59:16.277Z,11.93
2018-12-25T03:01:57.499Z,11.27
2018-12-25T03:04:38.538Z,12.60
2018-12-25T03:07:19.138Z,11.03
2018-12-25T03:09:59.705Z,11.80
2018-12-25T03:12:40.366Z,11.00
2018-12-25T03:15:21.496Z,10.83
2018-12-25T03:18:01.791Z,13.23
2018-12-25T03:20:42.045Z,10.57
2018-12-25T03:23:22.350Z,11.30
2018-12-25T03:26:03.199Z,11.17
2018-12-25T03:28:44.041Z,12.30
2018-12-25T03:31:24.951Z,9.90
2018-12-25T03:34:05.376Z,11.30
2018-12-25T03:36:46.400Z,9.60
2018-12-25T03:39:26.918Z,11.07
2018-12-25T03:42:07.672Z,9.50
2018-12-25T03:44:48.034Z,8.77
2018-12-25T03:47:29.050Z,8.93
2018-12-25T03:50:11.116Z,10.03
2018-12-25T03:52:52.073Z,14.27
2018-12-25T03:55:32.738Z,9.60
2018-12-25T03:58:13.067Z,9.47
2018-12-25T04:00:53.439Z,9.33
2018-12-25T04:03:33.777Z,10.33
2018-12-25T04:06:15.006Z,9.37
2018-12-25T04:08:55.480Z,10.10
2018-12-25T04:11:36.110Z,8.87
2018-12-25T04:14:16.610Z,9.10
2018-12-25T04:16:57.552Z,11.63
2018-12-25T04:19:38.639Z,9.10
2018-12-25T04:22:19.613Z,10.13
2018-12-25T04:25:00.007Z,9.13
2018-12-25T04:27:40.322Z,11.37
2018-12-25T04:30:19.245Z,9.83
2018-12-25T04:33:07.090Z,7.97
2018-12-25T04:35:54.958Z,8.63
2018-12-25T04:38:42.792Z,9.27
2018-12-25T04:41:30.657Z,8.67
2018-12-25T04:44:18.485Z,9.60
2018-12-25T04:46:59.582Z,9.00
2018-12-25T04:49:40.270Z,9.63
2018-12-25T04:52:21.306Z,7.97
2018-12-25T04:55:01.637Z,9.93
2018-12-25T04:57:42.555Z,9.37
2018-12-25T05:00:23.705Z,8.80
2018-12-25T05:03:04.021Z,8.73
2018-12-25T05:05:45.063Z,10.20
2018-12-25T05:08:25.331Z,9.07
2018-12-25T05:11:06.345Z,11.63
2018-12-25T05:13:47.538Z,8.57
2018-12-25T05:16:28.250Z,9.60
2018-12-25T05:19:07.126Z,9.70
2018-12-25T05:24:48.333Z,8.10
2018-12-25T05:27:36.207Z,9.20
2018-12-25T05:30:24.041Z,7.73
2018-12-25T05:33:11.913Z,10.17
2018-12-25T05:35:59.745Z,8.10
2018-12-25T05:38:47.597Z,8.50
2018-12-25T05:41:35.437Z,10.07
2018-12-25T05:44:23.317Z,7.70
2018-12-25T05:47:11.149Z,7.73
2018-12-25T05:49:59.002Z,8.60
2018-12-25T05:52:46.893Z,9.63
2018-12-25T05:55:34.729Z,10.63
2018-12-25T05:58:22.595Z,8.87
2018-12-25T06:01:10.434Z,8.97
2018-12-25T06:03:58.304Z,10.87
2018-12-25T06:06:46.145Z,10.13
2018-12-25T06:09:34.013Z,9.73
2018-12-25T06:12:21.839Z,9.40
2018-12-25T06:15:09.714Z,9.80
2018-12-25T06:17:57.550Z,9.70
2018-12-25T06:20:38.083Z,8.33
2018-12-25T06:23:16.942Z,8.90
2018-12-25T06:26:04.809Z,8.80
2018-12-25T06:28:52.651Z,8.40
2018-12-25T06:31:40.510Z,8.40
2018-12-25T06:34:28.341Z,8.93
2018-12-25T06:37:16.209Z,8.93
2018-12-25T06:40:04.713Z,8.37
2018-12-25T06:42:52.569Z,8.77
2018-12-25T06:45:40.409Z,9.10
2018-12-25T06:48:28.273Z,9.40
2018-12-25T06:51:16.109Z,8.77
2018-12-25T06:59:51.493Z,9.20
2018-12-25T07:02:39.332Z,10.00
2018-12-25T07:08:21.005Z,9.97
2018-12-25T07:11:08.874Z,10.43
2018-12-25T07:13:56.706Z,10.37
2018-12-25T07:16:44.572Z,11.77
2018-12-25T07:22:32.589Z,11.47
2018-12-25T07:25:13.345Z,10.63
2018-12-25T07:27:53.997Z,11.57
2018-12-25T07:30:35.130Z,7.57
2018-12-25T07:33:03.657Z,9.20
2018-12-25T07:35:51.486Z,10.73
2018-12-25T07:38:39.335Z,9.20
2018-12-25T07:41:27.188Z,9.47
2018-12-25T07:44:15.021Z,8.50
2018-12-25T07:47:02.873Z,9.20
2018-12-25T07:49:50.701Z,10.10
2018-12-25T07:55:31.625Z,9.83
2018-12-25T08:01:13.009Z,8.47
2018-12-25T08:04:00.853Z,10.43
2018-12-25T08:09:42.118Z,8.30
2018-12-25T08:15:23.329Z,8.90
2018-12-25T08:18:11.175Z,7.50
2018-12-25T08:20:59.025Z,9.27
2018-12-25T08:23:27.525Z,8.37
2018-12-25T08:26:15.665Z,8.43
2018-12-25T08:29:03.512Z,8.30
2018-12-25T08:31:51.373Z,8.33
2018-12-25T08:34:19.870Z,8.57
2018-12-25T08:36:48.369Z,10.63
2018-12-25T08:39:36.233Z,10.70
2018-12-25T08:42:24.069Z,9.70
2018-12-25T08:45:11.930Z,10.90
2018-12-25T08:47:59.833Z,12.00
2018-12-25T08:53:54.617Z,10.43
2018-12-25T08:56:42.456Z,10.77
2018-12-25T08:59:30.320Z,8.90
2018-12-25T09:05:25.273Z,7.80
2018-12-25T09:08:13.111Z,9.17
2018-12-25T09:11:00.968Z,8.63
2018-12-25T09:13:29.460Z,9.23
2018-12-25T09:15:57.948Z,9.43
2018-12-25T09:18:26.473Z,7.80
2018-12-25T09:23:48.801Z,8.17
2018-12-25T09:26:17.324Z,7.53
2018-12-25T09:28:45.814Z,7.63
2018-12-25T09:31:33.671Z,8.73
2018-12-25T09:34:21.486Z,7.77
2018-12-25T09:37:02.830Z,8.77
2018-12-25T09:39:31.332Z,8.33
2018-12-25T09:41:59.846Z,8.67
2018-12-25T09:44:47.853Z,8.70
2018-12-25T09:47:16.366Z,8.97
2018-12-25T09:50:04.268Z,9.47
2018-12-25T09:52:52.245Z,9.23
2018-12-25T09:55:40.085Z,11.33
2018-12-25T09:58:27.957Z,8.80
2018-12-25T10:07:16.694Z,8.10
2018-12-25T10:10:25.297Z,7.20
2018-12-25T10:13:13.132Z,8.70
2018-12-25T10:16:01.001Z,9.00
2018-12-25T10:22:02.777Z,8.57
2018-12-25T10:28:21.717Z,12.07
2018-12-25T10:31:02.753Z,9.03
2018-12-25T10:33:43.541Z,8.53
2018-12-25T10:36:24.253Z,8.10
2018-12-25T10:39:04.437Z,7.87
2018-12-25T10:41:45.421Z,8.07
2018-12-25T10:44:26.173Z,8.67
2018-12-25T10:47:06.393Z,7.80
2018-12-25T10:49:47.041Z,10.60
2018-12-25T10:52:27.345Z,8.87
2018-12-25T10:55:07.973Z,9.67
2018-12-25T10:57:48.677Z,8.10
2018-12-25T11:00:29.634Z,8.97
2018-12-25T11:03:10.108Z,7.63
2018-12-25T11:05:50.704Z,8.23
2018-12-25T11:08:31.425Z,8.53
2018-12-25T11:11:11.713Z,8.33
2018-12-25T11:13:52.535Z,7.83
2018-12-25T11:16:33.214Z,8.63
2018-12-25T11:19:14.221Z,8.27
2018-12-25T11:21:54.893Z,10.67
2018-12-25T11:24:36.105Z,10.60
2018-12-25T11:27:16.440Z,9.13
2018-12-25T11:29:57.281Z,8.30
2018-12-25T11:32:37.484Z,9.47
2018-12-25T11:35:18.544Z,8.40
2018-12-25T11:37:59.034Z,8.23
2018-12-25T11:40:39.440Z,8.50
2018-12-25T11:43:20.264Z,9.00
2018-12-25T11:46:00.645Z,8.60
2018-12-25T11:48:40.894Z,9.17
2018-12-25T11:51:21.509Z,8.90
2018-12-25T11:54:02.295Z,8.90
2018-12-25T11:56:43.449Z,9.20
2018-12-25T11:59:24.085Z,9.67
2018-12-25T12:02:04.293Z,9.80
2018-12-25T12:04:45.157Z,10.23
2018-12-25T12:07:25.459Z,10.67
2018-12-25T12:10:06.305Z,11.43
2018-12-25T12:12:46.973Z,10.03
2018-12-25T12:15:27.165Z,10.73
2018-12-25T12:18:08.021Z,10.97
2018-12-25T12:20:48.489Z,10.93
2018-12-25T12:23:29.329Z,10.50
2018-12-25T12:26:09.803Z,11.53
2018-12-25T12:28:51.078Z,11.00
2018-12-25T12:31:31.904Z,10.93
2018-12-25T12:34:00.344Z,10.53
2018-12-25T12:39:54.989Z,11.60
2018-12-25T12:42:42.718Z,12.67
2018-12-25T12:48:24.492Z,11.40
2018-12-25T12:51:12.260Z,11.87
2018-12-25T12:54:00.029Z,12.93
2018-12-25T12:59:41.210Z,11.17
2018-12-25T13:02:28.946Z,12.30
2018-12-25T13:05:16.713Z,12.03
2018-12-25T13:08:04.485Z,9.17
2018-12-25T13:10:52.217Z,8.63
2018-12-25T13:13:39.976Z,8.73
2018-12-25T13:16:27.704Z,9.23
2018-12-25T13:19:15.465Z,9.63
2018-12-25T13:22:03.241Z,8.73
2018-12-25T13:24:50.960Z,8.37
2018-12-25T13:27:38.733Z,9.80
2018-12-25T13:30:26.805Z,9.30
2018-12-25T13:33:14.721Z,9.67
2018-12-25T13:35:54.996Z,9.13
2018-12-25T13:38:35.572Z,8.90
2018-12-25T13:41:16.022Z,8.33
2018-12-25T13:43:56.945Z,10.53
2018-12-25T13:46:37.793Z,8.93
2018-12-25T13:49:18.547Z,9.67
2018-12-25T13:51:59.046Z,10.70
2018-12-25T13:54:40.173Z,9.17
2018-12-25T13:57:20.505Z,8.50
2018-12-25T14:00:01.561Z,9.30
2018-12-25T14:02:42.230Z,8.37
2018-12-25T14:05:22.750Z,8.67
2018-12-25T14:08:01.493Z,12.33
2018-12-25T14:10:49.268Z,7.63
2018-12-25T14:13:36.996Z,8.10
2018-12-25T14:16:24.772Z,7.80
2018-12-25T14:24:59.185Z,7.10
2018-12-25T14:27:46.916Z,7.40
2018-12-25T14:33:28.180Z,8.87
2018-12-25T14:36:15.909Z,7.90
2018-12-25T14:39:24.402Z,9.83
2018-12-25T14:42:12.141Z,10.53
2018-12-25T14:44:59.908Z,8.23
2018-12-25T14:47:47.651Z,10.27
2018-12-25T14:53:28.709Z,10.00
2018-12-25T14:56:16.437Z,9.07
2018-12-25T14:59:04.223Z,10.57
2018-12-25T15:01:51.948Z,11.97
2018-12-25T15:04:39.727Z,10.67
2018-12-25T15:07:27.461Z,9.03
2018-12-25T15:10:08.217Z,9.03
2018-12-25T15:12:48.933Z,7.40
2018-12-25T15:15:29.505Z,7.27
2018-12-25T15:18:10.392Z,7.57
2018-12-25T15:20:50.676Z,7.47
2018-12-25T15:23:31.748Z,8.90
2018-12-25T15:26:12.141Z,7.33
2018-12-25T15:28:53.081Z,7.80
2018-12-25T15:31:33.850Z,7.13
2018-12-25T15:34:14.374Z,8.17
2018-12-25T15:36:54.609Z,9.40
2018-12-25T15:39:35.537Z,8.47
2018-12-25T15:42:16.157Z,8.50
2018-12-25T15:44:57.037Z,8.50
2018-12-25T15:47:37.297Z,8.50
2018-12-25T15:50:17.841Z,8.47
2018-12-25T15:52:58.624Z,8.53
2018-12-25T15:55:38.893Z,8.77
2018-12-25T15:58:19.677Z,9.00
2018-12-25T16:00:59.930Z,7.40
2018-12-25T16:03:40.763Z,9.00
2018-12-25T16:06:21.474Z,8.40
2018-12-25T16:09:01.942Z,10.87
2018-12-25T16:11:42.389Z,8.83
2018-12-25T16:14:22.992Z,8.73
2018-12-25T16:17:03.612Z,8.63
2018-12-25T16:19:44.228Z,9.17
2018-12-25T16:22:25.345Z,10.00
2018-12-25T16:25:06.104Z,9.07
2018-12-25T16:27:46.625Z,10.43
2018-12-25T16:30:27.721Z,9.07
2018-12-25T16:33:07.885Z,9.50
2018-12-25T16:35:48.497Z,14.70
2018-12-25T16:38:29.489Z,13.10
2018-12-25T16:41:09.993Z,13.23
2018-12-25T16:43:51.074Z,9.27
2018-12-25T16:46:32.047Z,13.07
2018-12-25T16:49:12.905Z,15.33
2018-12-25T16:51:53.797Z,11.87
2018-12-25T16:54:34.545Z,11.73
2018-12-25T16:57:14.984Z,10.93
2018-12-25T16:59:55.946Z,12.57
2018-12-25T17:02:36.390Z,13.37
2018-12-25T17:05:17.053Z,14.70
2018-12-25T17:07:57.626Z,15.33
2018-12-25T17:10:38.533Z,14.80
2018-12-25T17:13:19.261Z,12.50
2018-12-25T17:15:59.907Z,14.33
2018-12-25T17:18:40.453Z,13.70
2018-12-25T17:21:21.038Z,15.30
2018-12-25T17:24:02.304Z,19.83
2018-12-25T17:26:43.074Z,17.83
2018-12-25T17:29:11.501Z,16.90
2018-12-25T17:31:59.237Z,19.80
2018-12-25T17:34:47.006Z,13.77
2018-12-25T17:37:34.740Z,14.13
2018-12-25T17:40:22.504Z,12.47
2018-12-25T17:43:10.273Z,14.43
2018-12-25T17:45:58.000Z,13.13
2018-12-25T17:48:45.784Z,11.63
2018-12-25T17:51:33.516Z,15.13
2018-12-25T17:54:21.280Z,12.70
2018-12-25T17:57:09.056Z,12.27
2018-12-25T17:59:56.795Z,16.03
2018-12-25T18:02:44.562Z,13.03
2018-12-25T18:05:32.291Z,13.00
2018-12-25T18:08:20.052Z,12.73
2018-12-25T18:11:00.821Z,13.57
2018-12-25T18:13:41.544Z,11.83
2018-12-25T18:16:21.824Z,13.37
2018-12-25T18:19:02.973Z,14.57
2018-12-25T18:21:31.373Z,18.37
2018-12-25T18:23:59.789Z,56.67
2018-12-25T18:26:47.551Z,60.03
2018-12-25T18:29:35.281Z,21.70
2018-12-25T18:32:23.040Z,25.27
2018-12-25T18:35:10.773Z,29.80
2018-12-25T18:37:58.561Z,17.93
2018-12-25T18:40:46.299Z,18.30
2018-12-25T18:46:27.885Z,14.83
2018-12-25T18:49:15.658Z,15.43
2018-12-25T18:52:03.385Z,15.33
2018-12-25T18:54:51.153Z,18.83
2018-12-25T18:57:38.885Z,16.67
2018-12-25T19:00:26.804Z,17.50
2018-12-25T19:03:14.539Z,24.10
2018-12-25T19:06:02.306Z,21.33
2018-12-25T19:08:50.036Z,16.23
2018-12-25T19:11:37.820Z,15.30
2018-12-25T19:14:25.555Z,15.67
2018-12-25T19:17:13.317Z,15.80
2018-12-25T19:20:01.085Z,15.77
2018-12-25T19:22:41.533Z,17.67
2018-12-25T19:25:21.850Z,20.37
2018-12-25T19:28:02.533Z,18.23
2018-12-25T19:30:42.951Z,22.87
2018-12-25T19:33:23.974Z,22.17
2018-12-25T19:36:04.588Z,22.03
2018-12-25T19:38:44.986Z,22.83
2018-12-25T19:41:25.697Z,23.47
2018-12-25T19:44:06.589Z,22.03
2018-12-25T19:46:47.320Z,26.50
2018-12-25T19:49:28.066Z,24.30
2018-12-25T19:52:08.296Z,23.13
2018-12-25T19:54:48.727Z,23.13
2018-12-25T19:57:29.133Z,28.57
2018-12-25T20:00:09.497Z,24.87
2018-12-25T20:02:50.082Z,27.43
2018-12-25T20:05:30.504Z,25.93
2018-12-25T20:08:11.374Z,27.53
2018-12-25T20:10:51.704Z,24.37
2018-12-25T20:13:32.240Z,33.43
2018-12-25T20:16:12.482Z,28.37
2018-12-25T20:18:52.910Z,27.60
2018-12-25T20:21:33.361Z,23.67
2018-12-25T20:24:19.377Z,21.77
2018-12-25T20:26:56.898Z,20.93
2018-12-25T20:29:37.292Z,19.87
2018-12-25T20:32:17.469Z,20.90
2018-12-25T20:34:58.469Z,21.17
2018-12-25T20:37:39.551Z,21.80
2018-12-25T20:40:19.774Z,21.73
2018-12-25T20:43:00.489Z,22.07
2018-12-25T20:45:41.269Z,23.00
2018-12-25T20:48:22.018Z,26.83
2018-12-25T20:51:02.972Z,29.80
2018-12-25T20:53:43.557Z,24.67
2018-12-25T20:56:24.083Z,19.83
2018-12-25T20:59:04.785Z,20.13
2018-12-25T21:01:45.041Z,18.00
2018-12-25T21:04:25.921Z,21.30
2018-12-25T21:07:06.400Z,22.47
2018-12-25T21:09:47.313Z,18.60
2018-12-25T21:12:27.511Z,19.97
2018-12-25T21:15:08.395Z,20.33
2018-12-25T21:17:49.245Z,21.50
2018-12-25T21:20:29.733Z,21.60
2018-12-25T21:23:10.362Z,25.80
2018-12-25T21:25:51.104Z,23.27
2018-12-25T21:28:31.479Z,21.60
2018-12-25T21:31:12.585Z,21.67
2018-12-25T21:33:53.205Z,19.93
2018-12-25T21:36:33.517Z,18.33
2018-12-25T21:39:14.461Z,17.93
2018-12-25T21:41:55.114Z,19.30
2018-12-25T21:44:35.792Z,19.63
2018-12-25T21:47:16.497Z,19.27
2018-12-25T21:49:57.512Z,20.00
2018-12-25T21:52:38.679Z,22.83
2018-12-25T21:55:19.095Z,20.68
2018-12-25T21:58:07.033Z,26.27
2018-12-25T22:00:54.777Z,25.47
2018-12-25T22:03:42.613Z,26.10
2018-12-25T22:06:30.358Z,30.57
2018-12-25T22:09:18.121Z,27.57
2018-12-25T22:12:05.858Z,25.10
2018-12-25T22:14:53.628Z,22.73
2018-12-25T22:17:41.365Z,22.53
2018-12-25T22:20:29.137Z,20.67
2018-12-25T22:26:10.376Z,27.67
2018-12-25T22:28:58.113Z,19.37
2018-12-25T22:31:26.545Z,17.90
2018-12-25T22:33:54.940Z,18.60
2018-12-25T22:36:42.725Z,16.20
2018-12-25T22:39:30.452Z,21.07
2018-12-25T22:42:18.217Z,19.83
2018-12-25T22:45:26.697Z,22.40
2018-12-25T22:48:14.465Z,21.93
2018-12-25T22:51:02.200Z,22.93
2018-12-25T22:53:49.969Z,20.23
2018-12-25T22:56:31.018Z,19.27
2018-12-25T22:59:11.733Z,19.30
2018-12-25T23:01:50.761Z,18.90
2018-12-25T23:04:38.520Z,18.57
2018-12-25T23:07:26.266Z,21.97
2018-12-25T23:10:15.757Z,20.17
2018-12-25T23:12:44.163Z,19.50
2018-12-25T23:15:12.561Z,21.10
2018-12-25T23:18:00.321Z,21.17
2018-12-25T23:20:48.054Z,23.07
2018-12-25T23:23:35.827Z,19.37
2018-12-25T23:26:23.561Z,19.80
2018-12-25T23:34:58.880Z,20.10
2018-12-25T23:37:46.691Z,19.97
2018-12-25T23:40:34.421Z,19.07
2018-12-25T23:43:22.176Z,17.83
2018-12-25T23:46:09.909Z,22.67
2018-12-25T23:48:57.665Z,17.47
2018-12-25T23:51:45.422Z,18.20
2018-12-25T23:57:26.304Z,20.83
